Time;durP1;ratioP1;P1;durP2;ratioP2;P2;SDS_P1;SDS_P2;PMS_P1;PMS_P2;Temp;Humidity;BMP_temperature;BMP_pressure;BME280_temperature;BME280_humidity;BME280_pressure;Samples;Min_cycle;Max_cycle;Signal;HPM_P1;HPM_P2
2021/11/01 00:02:06;;;;;;;0.00;0.00;;;;;;;10.68;90.49;99148.38;5030708;28;20116;-72
2021/11/01 00:04:32;;;;;;;3.17;0.85;;;;;;;10.78;90.36;99161.75;5031214;28;20414;-74
2021/11/01 00:06:57;;;;;;;0.00;0.00;;;;;;;10.77;89.93;99167.38;5031695;28;20044;-77
2021/11/01 00:09:27;;;;;;;0.10;0.10;;;;;;;10.78;89.98;99163.59;5030270;28;20025;-73
2021/11/01 00:11:53;;;;;;;0.00;0.00;;;;;;;10.80;89.75;99172.16;5031275;28;20033;-73
2021/11/01 00:14:18;;;;;;;0.20;0.20;;;;;;;10.71;89.64;99145.97;5031856;28;20036;-72
2021/11/01 00:16:43;;;;;;;0.10;0.10;;;;;;;10.81;90.33;99157.72;5031198;28;20033;-72
2021/11/01 00:19:09;;;;;;;2.65;1.17;;;;;;;10.80;89.30;99158.78;5029376;28;20026;-71
2021/11/01 00:21:34;;;;;;;0.00;0.00;;;;;;;10.77;89.62;99156.66;5031270;28;20026;-77
2021/11/01 00:24:00;;;;;;;0.20;0.20;;;;;;;10.76;89.46;99158.53;5029889;28;20033;-77
2021/11/01 00:26:25;;;;;;;0.35;0.35;;;;;;;10.78;89.76;99160.91;5029976;28;20028;-76
2021/11/01 00:28:51;;;;;;;0.00;0.00;;;;;;;10.70;89.42;99144.38;5029770;28;20117;-71
2021/11/01 00:31:16;;;;;;;0.00;0.00;;;;;;;10.81;89.00;99158.50;5029732;28;20053;-74
2021/11/01 00:33:42;;;;;;;0.00;0.00;;;;;;;10.79;89.33;99147.28;5030075;28;20108;-74
2021/11/01 00:36:08;;;;;;;0.00;0.00;;;;;;;10.84;89.19;99154.47;5030644;28;20064;-74
2021/11/01 00:38:34;;;;;;;0.20;0.20;;;;;;;10.90;89.50;99156.06;5030807;28;20442;-72
2021/11/01 00:41:00;;;;;;;0.00;0.00;;;;;;;10.90;88.97;99153.41;5030754;28;20030;-71
2021/11/01 00:43:25;;;;;;;0.00;0.00;;;;;;;10.92;89.15;99153.91;5031221;28;20100;-73
2021/11/01 00:45:51;;;;;;;0.00;0.00;;;;;;;10.95;89.05;99158.72;5030797;28;20023;-73
2021/11/01 00:48:17;;;;;;;0.00;0.00;;;;;;;10.93;88.88;99142.13;5029550;28;20022;-72
2021/11/01 00:50:43;;;;;;;0.00;0.00;;;;;;;10.87;89.17;99129.84;5031004;28;20040;-71
2021/11/01 00:53:09;;;;;;;0.00;0.00;;;;;;;11.01;88.80;99151.44;5030207;28;20064;-72
2021/11/01 00:58:02;;;;;;;0.00;0.00;;;;;;;11.04;88.36;99129.50;5030620;28;20029;-72
2021/11/01 01:00:29;;;;;;;0.00;0.00;;;;;;;11.03;88.26;99125.22;5030897;28;20065;-73
2021/11/01 01:02:56;;;;;;;0.03;0.03;;;;;;;11.10;88.41;99135.63;5030085;28;20415;-73
2021/11/01 01:05:21;;;;;;;0.00;0.00;;;;;;;11.02;88.64;99119.06;5030616;28;20032;-73
2021/11/01 01:07:47;;;;;;;0.00;0.00;;;;;;;11.11;88.25;99137.22;5030563;28;20108;-73
2021/11/01 01:10:13;;;;;;;0.00;0.00;;;;;;;11.07;88.15;99130.81;5029856;28;20036;-73
2021/11/01 01:12:42;;;;;;;0.00;0.00;;;;;;;11.07;88.32;99117.44;5029064;28;20052;-72
2021/11/01 01:15:11;;;;;;;0.00;0.00;;;;;;;11.10;87.93;99124.94;5030534;28;20029;-73
2021/11/01 01:17:39;;;;;;;0.00;0.00;;;;;;;11.05;87.37;99117.72;5030713;28;20091;-72
2021/11/01 01:20:09;;;;;;;0.00;0.00;;;;;;;11.12;87.80;99120.88;5028965;28;20040;-72
2021/11/01 01:22:37;;;;;;;0.00;0.00;;;;;;;11.16;87.71;99127.28;5030463;28;20079;-72
2021/11/01 01:25:29;;;;;;;0.00;0.00;;;;;;;11.20;87.19;99130.19;5025920;28;20228;-72
2021/11/01 01:27:57;;;;;;;0.00;0.00;;;;;;;11.19;87.32;99124.06;5006564;28;20069;-73
2021/11/01 01:30:24;;;;;;;0.00;0.00;;;;;;;11.19;87.23;99121.38;5028787;28;20076;-73
2021/11/01 01:32:51;;;;;;;0.00;0.00;;;;;;;11.14;87.23;99115.25;5030719;28;20026;-73
2021/11/01 01:35:18;;;;;;;0.00;0.00;;;;;;;11.14;87.57;99107.22;5030118;28;20044;-72
2021/11/01 01:37:44;;;;;;;0.00;0.00;;;;;;;11.15;87.13;99104.25;5030021;28;20029;-74
2021/11/01 01:40:11;;;;;;;0.00;0.00;;;;;;;11.18;87.41;99111.75;5030412;28;20022;-75
2021/11/01 01:42:38;;;;;;;0.00;0.00;;;;;;;11.20;86.78;99109.59;5030736;28;20038;-76
2021/11/01 01:45:07;;;;;;;0.00;0.00;;;;;;;11.16;87.12;99108.53;5029014;28;20033;-75
2021/11/01 01:47:33;;;;;;;0.00;0.00;;;;;;;11.18;86.86;99100.22;5030617;28;20031;-74
2021/11/01 01:49:58;;;;;;;0.00;0.00;;;;;;;11.24;86.83;99109.03;5033644;28;20100;-74
2021/11/01 01:52:24;;;;;;;0.00;0.00;;;;;;;11.18;86.66;99097.56;5033930;28;20036;-74
2021/11/01 01:54:50;;;;;;;0.00;0.00;;;;;;;11.21;86.80;99097.78;5034291;28;20033;-73
2021/11/01 01:57:16;;;;;;;0.00;0.00;;;;;;;11.25;87.18;99110.63;5033691;28;20512;-71
2021/11/01 01:59:43;;;;;;;0.10;0.10;;;;;;;11.25;86.70;99103.38;5034144;28;20104;-75
2021/11/01 02:02:09;;;;;;;0.00;0.00;;;;;;;11.22;86.76;99098.59;5032195;28;20041;-75
2021/11/01 02:04:35;;;;;;;0.00;0.00;;;;;;;11.26;86.53;99094.28;5032626;28;20029;-73
2021/11/01 02:07:32;;;;;;;0.00;0.00;;;;;;;11.28;86.69;99094.81;5032970;28;20036;-71
2021/11/01 02:10:06;;;;;;;0.13;0.13;;;;;;;11.21;86.47;99078.25;5033659;28;20032;-73
2021/11/01 02:12:49;;;;;;;0.00;0.00;;;;;;;11.20;86.63;99079.34;5032675;28;20030;-71
2021/11/01 02:15:34;;;;;;;0.00;0.00;;;;;;;11.29;86.75;99093.75;5033683;28;20103;-73
2021/11/01 02:18:01;;;;;;;0.00;0.00;;;;;;;11.28;86.21;99094.00;5032355;28;20397;-73
2021/11/01 02:20:36;;;;;;;0.00;0.00;;;;;;;11.30;86.34;99098.03;5032501;28;20059;-74
2021/11/01 02:23:07;;;;;;;0.00;0.00;;;;;;;11.30;86.07;99089.16;5031959;28;20509;-74
2021/11/01 02:25:42;;;;;;;0.00;0.00;;;;;;;11.23;86.44;99077.97;5033386;28;20491;-74
2021/11/01 02:28:09;;;;;;;0.00;0.00;;;;;;;11.28;86.69;99086.78;5033518;28;20053;-74
2021/11/01 02:30:40;;;;;;;0.00;0.00;;;;;;;11.17;86.53;99072.66;5033394;28;20022;-72
2021/11/01 02:33:07;;;;;;;0.00;0.00;;;;;;;11.30;86.44;99083.81;5031800;28;20036;-73
2021/11/01 02:35:33;;;;;;;0.00;0.00;;;;;;;11.23;86.82;99076.13;5033231;28;20036;-72
2021/11/01 02:38:00;;;;;;;0.00;0.00;;;;;;;11.23;86.54;99070.75;5032790;28;20406;-73
2021/11/01 02:40:27;;;;;;;0.00;0.00;;;;;;;11.25;86.41;99070.47;5031568;28;20049;-73
2021/11/01 02:42:52;;;;;;;0.00;0.00;;;;;;;11.24;86.74;99069.66;5013656;28;20050;-72
2021/11/01 02:45:18;;;;;;;0.30;0.30;;;;;;;11.29;86.75;99077.69;5013066;28;20514;-72
2021/11/01 02:47:43;;;;;;;0.00;0.00;;;;;;;11.21;86.75;99064.88;5012294;28;20502;-72
2021/11/01 02:50:12;;;;;;;0.00;0.00;;;;;;;11.28;86.84;99080.63;5021073;28;20500;-73
2021/11/01 02:52:38;;;;;;;0.00;0.00;;;;;;;11.22;87.16;99071.84;5031671;28;20130;-72
2021/11/01 02:55:05;;;;;;;0.00;0.00;;;;;;;11.26;86.66;99074.75;5031275;28;20635;-73
2021/11/01 02:57:31;;;;;;;0.00;0.00;;;;;;;11.28;86.95;99078.75;5031736;28;20033;-73
2021/11/01 02:59:56;;;;;;;0.00;0.00;;;;;;;11.22;86.41;99063.81;5031800;28;20040;-74
2021/11/01 03:02:22;;;;;;;0.10;0.10;;;;;;;11.17;86.49;99058.50;5032681;28;20069;-72
2021/11/01 03:04:47;;;;;;;0.00;0.00;;;;;;;11.23;86.43;99064.59;5031674;28;20479;-73
2021/11/01 03:07:14;;;;;;;0.00;0.00;;;;;;;11.25;86.43;99071.25;5030758;28;20029;-72
2021/11/01 03:09:45;;;;;;;0.00;0.00;;;;;;;11.27;86.64;99060.31;5032520;28;20065;-74
2021/11/01 03:12:13;;;;;;;0.00;0.00;;;;;;;11.26;85.94;99062.16;5032643;28;20069;-74
2021/11/01 03:14:45;;;;;;;0.00;0.00;;;;;;;11.20;86.41;99053.38;5031395;28;20030;-73
2021/11/01 03:17:14;;;;;;;0.00;0.00;;;;;;;11.19;86.23;99049.09;5030586;28;20056;-72
2021/11/01 03:19:43;;;;;;;0.28;0.28;;;;;;;11.20;86.65;99057.94;5032142;28;20102;-74
2021/11/01 03:22:11;;;;;;;0.00;0.00;;;;;;;11.15;86.98;99050.72;5030655;28;20036;-75
2021/11/01 03:24:41;;;;;;;0.00;0.00;;;;;;;11.15;86.45;99055.28;5032094;28;20069;-73
2021/11/01 03:27:09;;;;;;;0.00;0.00;;;;;;;11.17;86.84;99059.28;5032015;28;20033;-73
2021/11/01 03:29:35;;;;;;;;;;;;;;;11.18;86.84;99054.72;5031037;28;20029;-72
2021/11/01 03:32:04;;;;;;;0.00;0.00;;;;;;;11.13;86.72;99046.72;5030210;28;20441;-73
2021/11/01 03:34:31;;;;;;;0.00;0.00;;;;;;;11.14;86.71;99049.13;5032043;28;20458;-76
2021/11/01 03:37:01;;;;;;;0.57;0.57;;;;;;;11.11;86.56;99040.84;5031158;28;20075;-73
2021/11/01 03:39:27;;;;;;;0.00;0.00;;;;;;;11.15;86.95;99041.91;5029602;28;20033;-72
2021/11/01 03:41:53;;;;;;;0.00;0.00;;;;;;;11.09;86.62;99029.66;5032364;28;20049;-73
2021/11/01 03:44:25;;;;;;;0.00;0.00;;;;;;;11.16;86.62;99030.91;5032031;28;20108;-73
2021/11/01 03:47:02;;;;;;;0.00;0.00;;;;;;;11.21;86.55;99036.22;5032139;28;20112;-72
2021/11/01 03:49:29;;;;;;;0.00;0.00;;;;;;;11.19;86.55;99032.22;5032097;28;20022;-72
2021/11/01 03:52:19;;;;;;;0.35;0.35;;;;;;;11.22;86.67;99037.03;5031723;28;20037;-73
2021/11/01 03:54:41;;;;;;;0.00;0.00;;;;;;;11.14;86.90;99025.03;5030667;28;20038;-71
2021/11/01 03:57:08;;;;;;;0.00;0.00;;;;;;;11.10;86.17;99015.97;5031641;28;20022;-71
2021/11/01 03:59:36;;;;;;;0.00;0.00;;;;;;;11.13;87.09;99019.97;5031897;28;20398;-71
2021/11/01 04:02:01;;;;;;;0.15;0.15;;;;;;;11.07;87.13;99007.72;5031095;28;20037;-72
2021/11/01 04:04:27;;;;;;;0.00;0.00;;;;;;;11.05;86.72;99003.44;5031129;28;20108;-72
2021/11/01 04:06:53;;;;;;;0.10;0.10;;;;;;;11.07;86.62;99007.72;5031464;28;20482;-72
2021/11/01 04:09:18;;;;;;;0.00;0.00;;;;;;;11.04;87.67;99009.84;5031133;28;20341;-71
2021/11/01 04:11:49;;;;;;;0.55;0.47;;;;;;;11.04;87.81;99014.44;5031243;28;20021;-71
2021/11/01 04:14:18;;;;;;;0.80;0.25;;;;;;;10.96;87.57;99010.47;5031379;28;20025;-71
2021/11/01 04:16:48;;;;;;;0.10;0.10;;;;;;;10.91;87.57;98997.13;5029750;28;20033;-72
2021/11/01 04:21:45;;;;;;;0.10;0.10;;;;;;;10.96;87.75;98994.44;5031179;28;20025;-73
2021/11/01 04:24:12;;;;;;;0.00;0.00;;;;;;;10.93;87.99;98994.19;5030534;28;20041;-71
2021/11/01 04:26:37;;;;;;;0.20;0.20;;;;;;;10.91;88.52;98982.94;5031334;28;20025;-71
2021/11/01 04:29:07;;;;;;;0.20;0.20;;;;;;;10.89;87.87;98977.88;5029423;28;20044;-72
2021/11/01 04:31:35;;;;;;;0.00;0.00;;;;;;;10.90;88.20;98982.16;5030645;28;20028;-74
2021/11/01 04:34:09;;;;;;;0.00;0.00;;;;;;;10.97;87.91;98995.22;5030935;28;20443;-70
2021/11/01 04:36:34;;;;;;;0.00;0.00;;;;;;;10.93;88.21;98988.84;5030082;28;20037;-74
2021/11/01 04:39:10;;;;;;;0.00;0.00;;;;;;;10.97;88.10;98990.66;5030462;28;20037;-73
2021/11/01 04:41:55;;;;;;;0.00;0.00;;;;;;;10.99;88.09;98993.06;5031393;28;20087;-73
2021/11/01 04:54:58;;;;;;;0.00;0.00;;;;;;;11.10;87.80;99007.94;5030475;28;20083;-73
2021/11/01 04:57:25;;;;;;;0.30;0.30;;;;;;;11.10;88.34;98999.91;5030735;28;20025;-73
2021/11/01 04:59:51;;;;;;;0.00;0.00;;;;;;;11.12;87.54;99005.00;5030937;28;20128;-72
2021/11/01 05:02:18;;;;;;;0.00;0.00;;;;;;;11.09;87.35;98998.31;5029492;28;20538;-75
2021/11/01 05:04:45;;;;;;;0.00;0.00;;;;;;;11.13;87.35;99004.72;5030640;28;20033;-72
2021/11/01 05:07:10;;;;;;;0.38;0.38;;;;;;;11.16;87.45;99006.03;5030336;28;20025;-75
2021/11/01 05:09:44;;;;;;;0.00;0.00;;;;;;;11.11;87.48;98987.31;5028879;28;20025;-72
2021/11/01 05:21:21;;;;;;;0.00;0.00;;;;;;;11.16;87.04;99006.03;5029719;28;20081;-72
2021/11/01 05:23:37;;;;;;;1.08;0.55;;;;;;;11.13;87.19;98995.88;5018708;28;20128;-78
2021/11/01 05:26:14;;;;;;;0.00;0.00;;;;;;;11.09;87.09;98982.25;5032512;28;20029;-73
2021/11/01 05:31:09;;;;;;;0.00;0.00;;;;;;;11.13;87.12;98995.88;5033880;28;20029;-74
2021/11/01 05:36:00;;;;;;;0.00;0.00;;;;;;;11.16;87.22;99000.69;5034405;28;20029;-74
2021/11/01 05:38:26;;;;;;;0.00;0.00;;;;;;;11.13;86.79;98995.88;5033917;28;20518;-74
2021/11/01 05:40:51;;;;;;;0.10;0.10;;;;;;;11.11;87.19;99000.72;5034441;28;20052;-74
2021/11/01 05:43:17;;;;;;;0.00;0.00;;;;;;;11.09;86.67;98992.97;5034097;28;20041;-74
2021/11/01 05:45:43;;;;;;;0.03;0.03;;;;;;;11.15;86.85;99010.56;5032939;28;20439;-75
2021/11/01 05:48:08;;;;;;;0.00;0.00;;;;;;;11.17;86.78;99011.09;5033087;28;20034;-74
2021/11/01 05:50:35;;;;;;;2.92;1.42;;;;;;;11.15;86.80;99015.16;5033947;28;20387;-74
2021/11/01 05:53:04;;;;;;;0.47;0.47;;;;;;;11.18;86.48;99020.75;5034222;28;20026;-74
2021/11/01 06:06:32;;;;;;;1.10;0.40;;;;;;;11.21;86.46;99017.47;5034109;28;20034;-74
2021/11/01 06:08:41;;;;;;;0.00;0.00;;;;;;;11.21;86.54;99027.41;5022800;28;20418;-75
2021/11/01 06:13:52;;;;;;;3.20;1.45;;;;;;;11.17;86.50;99013.78;5033974;28;20033;-74
2021/11/01 06:16:17;;;;;;;1.13;1.13;;;;;;;11.20;86.54;99023.94;5033684;28;20067;-74
2021/11/01 06:18:42;;;;;;;0.20;0.20;;;;;;;11.26;86.28;99026.56;5033567;28;20120;-74
2021/11/01 06:21:14;;;;;;;0.25;0.25;;;;;;;11.21;85.77;99017.47;5033447;28;20473;-74
2021/11/01 06:23:51;;;;;;;0.13;0.13;;;;;;;11.23;86.28;99016.41;5032392;28;20026;-74
2021/11/01 06:26:18;;;;;;;0.30;0.30;;;;;;;11.25;85.48;99014.25;5032246;28;20548;-74
2021/11/01 06:28:51;;;;;;;0.00;0.00;;;;;;;11.28;85.83;99019.03;5032329;28;20034;-74
2021/11/01 06:31:24;;;;;;;0.10;0.10;;;;;;;11.34;85.96;99024.09;5032058;28;20375;-74
2021/11/01 06:39:26;;;;;;;0.20;0.20;;;;;;;11.36;85.74;99008.53;5033037;28;20044;-74
2021/11/01 06:42:13;;;;;;;0.08;0.08;;;;;;;11.41;85.56;99014.91;5032936;28;20048;-75
2021/11/01 06:50:00;;;;;;;0.00;0.00;;;;;;;11.47;85.45;99008.44;5032989;28;20044;-74
2021/11/01 07:19:26;;;;;;;0.00;0.00;;;;;;;11.77;84.02;98990.47;5032515;28;20030;-75
2021/11/01 08:48:13;;;;;;;0.32;0.32;;;;;;;13.24;75.33;98952.19;5031163;28;20259;-74
2021/11/01 09:20:20;;;;;;;1.08;1.08;;;;;;;13.58;72.22;98926.88;5030368;28;20036;-73
2021/11/01 09:28:12;;;;;;;1.10;1.10;;;;;;;13.54;73.29;98926.69;5030672;28;20037;-73
2021/11/01 09:39:18;;;;;;;0.80;0.80;;;;;;;13.68;73.38;98899.00;5030453;28;20029;-73
2021/11/01 09:41:08;;;;;;;1.27;1.25;;;;;;;13.74;73.09;98908.56;5019632;28;20053;-74
2021/11/01 09:43:34;;;;;;;0.75;0.70;;;;;;;13.67;72.69;98892.84;5030016;28;20033;-73
2021/11/01 09:46:10;;;;;;;0.10;0.10;;;;;;;13.69;72.82;98895.22;5030914;28;20030;-74
2021/11/01 09:48:38;;;;;;;0.38;0.38;;;;;;;13.74;73.23;98881.69;5030376;28;20033;-74
2021/11/01 09:51:04;;;;;;;0.90;0.60;;;;;;;13.80;72.52;98877.78;5030565;28;20127;-74
2021/11/01 09:53:39;;;;;;;0.20;0.20;;;;;;;13.93;72.68;98898.47;5030289;28;20079;-74
2021/11/01 09:56:17;;;;;;;3.70;1.73;;;;;;;13.91;72.29;98873.81;5028851;28;20045;-74
2021/11/01 09:59:27;;;;;;;0.10;0.10;;;;;;;13.93;71.86;98878.88;5028728;28;20028;-74
2021/11/01 10:01:28;;;;;;;0.00;0.00;;;;;;;13.97;72.40;98876.38;5019274;28;20065;-74
2021/11/01 10:03:53;;;;;;;0.32;0.32;;;;;;;13.99;71.92;98879.53;5029444;28;20573;-74
2021/11/01 10:06:23;;;;;;;0.45;0.45;;;;;;;13.96;72.66;98855.97;5029029;28;20030;-73
2021/11/01 10:08:54;;;;;;;0.25;0.25;;;;;;;14.04;72.42;98861.41;5030896;28;20030;-74
2021/11/01 10:11:23;;;;;;;0.35;0.35;;;;;;;14.18;72.11;98872.09;5034101;28;20025;-74
2021/11/01 10:13:54;;;;;;;0.68;0.63;;;;;;;14.18;70.98;98869.41;5032727;28;20043;-74
2021/11/01 10:19:32;;;;;;;;;;;;;;;14.21;71.19;98874.22;5034196;28;20040;-74
2021/11/01 10:22:01;;;;;;;0.57;0.57;;;;;;;14.14;70.89;98860.38;5033954;28;20336;-74
2021/11/01 10:24:38;;;;;;;2.30;1.42;;;;;;;14.04;71.09;98849.88;5032256;28;20167;-74
2021/11/01 10:27:07;;;;;;;0.98;0.98;;;;;;;14.06;71.86;98855.72;5032623;28;20072;-74
2021/11/01 10:29:35;;;;;;;0.10;0.10;;;;;;;14.06;72.13;98853.84;5032034;28;20029;-74
2021/11/01 10:32:00;;;;;;;0.10;0.10;;;;;;;13.98;71.28;98843.81;5033446;28;20410;-73
2021/11/01 10:34:27;;;;;;;0.38;0.38;;;;;;;13.96;72.43;98847.91;5033489;28;20037;-73
2021/11/01 10:36:57;;;;;;;0.38;0.38;;;;;;;13.87;72.62;98826.31;5033581;28;20033;-75
2021/11/01 10:39:24;;;;;;;0.43;0.43;;;;;;;13.99;72.71;98833.84;5031985;28;20037;-73
2021/11/01 10:56:51;;;;;;;0.32;0.32;;;;;;;14.44;70.51;98816.91;5021203;28;20069;-73
2021/11/01 11:13:11;;;;;;;0.15;0.15;;;;;;;14.53;69.63;98796.25;5032895;28;20102;-74
2021/11/01 11:15:39;;;;;;;0.98;0.57;;;;;;;14.62;69.30;98798.97;5032400;28;20497;-74
2021/11/01 11:26:49;;;;;;;0.00;0.00;;;;;;;14.70;69.14;98776.75;5032438;28;20041;-74
2021/11/01 11:40:46;;;;;;;0.63;0.63;;;;;;;14.83;67.62;98772.34;5032506;28;20030;-74
2021/11/01 11:48:49;;;;;;;0.43;0.43;;;;;;;14.81;67.65;98748.44;5031807;28;20175;-75
2021/11/01 11:51:15;;;;;;;0.32;0.32;;;;;;;14.89;67.49;98755.75;5032090;28;20038;-74
2021/11/01 11:53:57;;;;;;;0.47;0.47;;;;;;;14.91;67.37;98755.44;5031903;28;20036;-74
2021/11/01 11:56:33;;;;;;;0.13;0.13;;;;;;;14.91;67.45;98746.56;5032023;28;20034;-74
2021/11/01 11:59:00;;;;;;;0.60;0.60;;;;;;;14.91;68.01;98744.66;5032075;28;20421;-74
2021/11/01 12:01:36;;;;;;;0.50;0.50;;;;;;;14.93;67.34;98739.78;5031893;28;20061;-74
2021/11/01 12:04:05;;;;;;;1.25;1.00;;;;;;;14.96;67.77;98738.34;5030694;28;20422;-74
2021/11/01 12:06:53;;;;;;;0.32;0.32;;;;;;;15.08;67.43;98751.22;5031731;28;20029;-74
2021/11/01 12:09:26;;;;;;;0.20;0.20;;;;;;;15.12;67.89;98741.41;5031815;28;20018;-74
2021/11/01 12:17:30;;;;;;;0.15;0.15;;;;;;;15.42;66.74;98747.00;5031531;28;20585;-74
2021/11/01 12:20:01;;;;;;;0.40;0.40;;;;;;;15.33;65.85;98730.81;5031689;28;20030;-74
2021/11/01 12:22:33;;;;;;;0.85;0.85;;;;;;;15.35;65.95;98739.38;5030278;28;20161;-74
2021/11/01 12:25:02;;;;;;;1.45;1.13;;;;;;;15.25;65.69;98731.63;5030245;28;20068;-74
2021/11/01 12:27:29;;;;;;;;;;;;;;;15.28;66.45;98737.16;5031732;28;20026;-74
2021/11/01 12:29:55;;;;;;;2.63;1.30;;;;;;;15.21;65.88;98736.84;5030548;28;19971;-74
2021/11/01 12:32:21;;;;;;;0.47;0.47;;;;;;;15.19;65.77;98736.34;5029739;28;20033;-74
2021/11/01 12:35:01;;;;;;;0.20;0.20;;;;;;;15.06;66.43;98719.19;5031209;28;20026;-74
2021/11/01 12:37:39;;;;;;;1.70;1.63;;;;;;;15.04;66.52;98724.13;5030118;28;20397;-74
2021/11/01 12:43:01;;;;;;;0.82;0.82;;;;;;;15.01;67.17;98716.66;5030734;28;20038;-74
2021/11/01 12:58:53;;;;;;;0.10;0.10;;;;;;;15.12;67.56;98720.63;5030873;28;20036;-74
2021/11/01 13:01:19;;;;;;;0.22;0.22;;;;;;;15.16;67.59;98720.81;5029714;28;20471;-74
2021/11/01 13:03:54;;;;;;;0.20;0.20;;;;;;;15.03;67.55;98693.69;5029479;28;20120;-74
2021/11/01 13:09:26;;;;;;;3.97;1.08;;;;;;;15.23;66.99;98715.75;4999662;28;20508;-74
2021/11/01 13:19:52;;;;;;;0.30;0.30;;;;;;;15.19;67.11;98714.78;5030440;28;20060;-74
2021/11/01 13:22:24;;;;;;;1.65;1.55;;;;;;;15.16;66.65;98712.72;5030519;28;20100;-74
2021/11/01 13:27:42;;;;;;;1.38;1.13;;;;;;;15.07;66.74;98709.22;5030831;28;20029;-74
2021/11/01 13:38:44;;;;;;;0.57;0.43;;;;;;;15.20;66.36;98714.47;5030404;28;20042;-75
2021/11/01 13:41:14;;;;;;;0.00;0.00;;;;;;;15.22;65.90;98716.84;5030683;28;20037;-75
2021/11/01 13:43:40;;;;;;;1.25;1.15;;;;;;;15.16;66.67;98713.53;5030287;28;20484;-75
2021/11/01 13:46:05;;;;;;;1.88;1.15;;;;;;;15.14;67.21;98714.97;5034642;28;20104;-75
2021/11/01 13:48:32;;;;;;;1.15;1.15;;;;;;;15.09;67.01;98715.88;5034244;28;20026;-74
2021/11/01 13:51:10;;;;;;;2.22;2.08;;;;;;;15.04;67.59;98713.34;5034455;28;20090;-74
2021/11/01 13:54:02;;;;;;;0.57;0.57;;;;;;;14.99;68.12;98719.66;5034255;28;20029;-74
2021/11/01 13:56:34;;;;;;;1.40;1.33;;;;;;;14.95;68.22;98717.91;5034488;28;20075;-74
2021/11/01 13:59:04;;;;;;;2.40;1.73;;;;;;;14.87;67.97;98714.88;5034234;28;20018;-74
2021/11/01 14:01:44;;;;;;;2.75;1.80;;;;;;;14.84;68.26;98712.84;5034238;28;20026;-74
2021/11/01 14:15:01;;;;;;;1.27;1.17;;;;;;;14.70;68.74;98706.75;5033833;28;20407;-73
2021/11/01 15:25:35;;;;;;;1.50;1.50;;;;;;;13.28;77.78;98706.91;4971174;28;20031;-75
2021/11/01 16:19:07;;;;;;;0.50;0.50;;;;;;;12.69;79.98;98706.78;5031108;28;20571;-73
2021/11/01 16:21:33;;;;;;;0.30;0.30;;;;;;;12.76;79.85;98711.75;5031418;28;20406;-73
2021/11/01 16:23:58;;;;;;;0.47;0.47;;;;;;;12.72;79.77;98716.91;5030940;28;20065;-71
2021/11/01 16:26:25;;;;;;;0.10;0.10;;;;;;;12.71;79.77;98722.59;5031121;28;20469;-72
2021/11/01 16:29:06;;;;;;;0.45;0.45;;;;;;;12.65;80.03;98719.19;5031424;28;20079;-72
2021/11/01 16:34:30;;;;;;;0.08;0.08;;;;;;;12.67;80.14;98735.81;5031597;28;20486;-71
2021/11/01 16:37:14;;;;;;;1.17;1.17;;;;;;;12.55;79.93;98722.06;5030035;28;20037;-72
2021/11/01 16:39:49;;;;;;;0.22;0.22;;;;;;;12.68;80.38;98736.59;5026756;28;20021;-72
2021/11/01 16:42:23;;;;;;;0.00;0.00;;;;;;;12.63;80.05;98743.66;5030852;28;20037;-73
2021/11/01 16:44:49;;;;;;;0.95;0.95;;;;;;;12.67;80.50;98749.22;5030204;28;20029;-75
2021/11/01 16:47:17;;;;;;;0.13;0.13;;;;;;;12.65;80.40;98740.66;5030922;28;20470;-82
2021/11/01 16:49:43;;;;;;;0.57;0.55;;;;;;;12.62;80.19;98739.38;5029527;28;20090;-73
2021/11/01 16:52:18;;;;;;;0.75;0.43;;;;;;;12.67;80.69;98743.03;5031236;28;20026;-73
2021/11/01 16:54:49;;;;;;;0.00;0.00;;;;;;;12.63;80.70;98735.59;5028493;28;20117;-74
2021/11/01 16:57:22;;;;;;;0.22;0.20;;;;;;;12.62;80.42;98733.19;5020817;28;20509;-74
2021/11/01 16:59:56;;;;;;;0.00;0.00;;;;;;;12.64;80.38;98739.06;5009993;28;20025;-74
2021/11/01 17:02:39;;;;;;;0.98;0.65;;;;;;;12.58;80.84;98740.25;5031791;28;20027;-74
2021/11/01 17:05:16;;;;;;;0.43;0.43;;;;;;;12.61;80.75;98743.16;5029505;28;20084;-74
2021/11/01 17:21:36;;;;;;;1.35;1.25;;;;;;;12.49;81.00;98729.44;5030851;28;20095;-72
2021/11/01 17:24:09;;;;;;;0.75;0.75;;;;;;;12.47;81.39;98728.91;5030629;28;20037;-73
2021/11/01 17:26:53;;;;;;;1.88;1.75;;;;;;;12.54;81.55;98744.63;5029463;28;20084;-73
2021/11/01 17:35:48;;;;;;;0.88;0.68;;;;;;;12.51;81.52;98746.00;5030511;28;20072;-73
2021/11/01 18:37:08;;;;;;;0.25;0.25;;;;;;;12.32;80.12;98728.09;5026616;28;20084;-79
2021/11/01 18:41:55;;;;;;;0.03;0.03;;;;;;;12.25;80.42;98730.34;5014713;28;20026;-73
2021/11/01 18:52:57;;;;;;;0.32;0.32;;;;;;;12.11;80.75;98737.59;5025267;28;20095;-75
2021/11/01 18:55:23;;;;;;;0.00;0.00;;;;;;;12.00;81.11;98736.97;5020076;28;20029;-73
2021/11/01 18:57:51;;;;;;;0.15;0.15;;;;;;;11.98;80.91;98721.16;5013427;28;20479;-73
2021/11/01 19:00:17;;;;;;;0.00;0.00;;;;;;;12.04;80.76;98742.53;5013553;28;20084;-70
2021/11/01 19:02:47;;;;;;;0.22;0.22;;;;;;;12.01;81.15;98744.69;5021551;28;20484;-72
2021/11/01 19:05:23;;;;;;;0.00;0.00;;;;;;;11.98;80.98;98741.81;5013247;28;20034;-72
2021/11/01 19:08:11;;;;;;;0.00;0.00;;;;;;;11.90;80.67;98734.41;5015186;28;20083;-75
2021/11/01 20:05:39;;;;;;;0.00;0.00;;;;;;;10.77;79.25;98736.72;5016461;28;20049;-74
2021/11/01 20:08:34;;;;;;;0.40;0.40;;;;;;;10.76;78.48;98741.25;5016678;28;20022;-77
2021/11/01 20:14:32;;;;;;;0.00;0.00;;;;;;;10.63;78.46;98742.75;5026341;28;20060;-79
2021/11/01 21:26:27;;;;;;;0.10;0.10;;;;;;;9.30;80.75;98713.28;5030117;28;20033;-72
2021/11/01 21:28:53;;;;;;;0.10;0.10;;;;;;;9.23;81.13;98702.91;5028626;28;20034;-71
2021/11/01 21:31:20;;;;;;;0.00;0.00;;;;;;;9.29;81.23;98712.50;5030048;28;20399;-71
2021/11/01 21:33:49;;;;;;;0.77;0.77;;;;;;;9.27;80.83;98700.50;5029989;28;20079;-70
2021/11/01 21:36:23;;;;;;;0.20;0.20;;;;;;;9.20;80.33;98692.78;5029785;28;20375;-70
2021/11/01 21:38:53;;;;;;;0.00;0.00;;;;;;;9.20;80.38;98689.34;5029258;28;20033;-71
2021/11/01 21:41:18;;;;;;;0.00;0.00;;;;;;;9.24;80.52;98703.69;5028704;28;20034;-72
2021/11/01 21:43:44;;;;;;;0.00;0.00;;;;;;;9.18;80.85;98700.28;5029617;28;20052;-72
2021/11/01 21:46:09;;;;;;;0.00;0.00;;;;;;;9.19;80.51;98693.06;5028600;28;20116;-73
2021/11/01 21:48:35;;;;;;;0.00;0.00;;;;;;;9.21;80.47;98704.28;5045572;28;20029;-71
2021/11/01 21:51:00;;;;;;;0.00;0.00;;;;;;;9.20;80.75;98713.34;5030013;28;20406;-69
2021/11/01 21:53:27;;;;;;;0.00;0.00;;;;;;;9.13;81.18;98701.09;5028341;28;20037;-69
2021/11/01 21:55:52;;;;;;;0.00;0.00;;;;;;;9.13;81.29;98703.78;5029630;28;20025;-70
2021/11/01 22:01:08;;;;;;;0.00;0.00;;;;;;;9.12;80.88;98709.38;5029599;28;20035;-70
2021/11/01 22:17:29;;;;;;;0.00;0.00;;;;;;;8.85;80.67;98697.25;5037705;28;20117;-73
2021/11/01 22:25:16;;;;;;;0.43;0.43;;;;;;;8.79;80.87;98696.44;5033165;28;20103;-71
2021/11/01 22:57:08;;;;;;;0.00;0.00;;;;;;;8.39;80.60;98684.81;5018859;28;20532;-71
2021/11/01 22:59:34;;;;;;;0.00;0.00;;;;;;;8.42;80.82;98692.28;5033375;28;20033;-74
2021/11/01 23:01:59;;;;;;;0.00;0.00;;;;;;;8.29;80.92;98674.97;5047671;28;20048;-70
2021/11/01 23:31:56;;;;;;;0.00;0.00;;;;;;;8.14;84.94;98616.41;5031950;28;20064;-69
2021/11/01 23:34:22;;;;;;;0.00;0.00;;;;;;;7.99;85.12;98599.38;5032400;28;20057;-70
2021/11/01 23:36:47;;;;;;;0.32;0.32;;;;;;;8.16;85.46;98611.59;5031539;28;20037;-70
2021/11/01 23:39:15;;;;;;;0.05;0.05;;;;;;;8.07;86.03;98599.91;5032163;28;20033;-74
2021/11/01 23:41:48;;;;;;;0.10;0.10;;;;;;;7.91;86.15;98583.97;5029442;28;20092;-74
2021/11/01 23:44:15;;;;;;;0.22;0.22;;;;;;;8.13;86.92;98607.63;5047063;28;20037;-72
2021/11/01 23:46:41;;;;;;;0.00;0.00;;;;;;;8.15;86.72;98610.81;5040507;28;20091;-71
2021/11/01 23:49:06;;;;;;;0.00;0.00;;;;;;;8.10;87.02;98599.38;5031830;28;20034;-71
2021/11/01 23:51:36;;;;;;;0.10;0.10;;;;;;;8.20;87.08;98611.84;5031134;28;20405;-72
2021/11/01 23:56:39;;;;;;;0.00;0.00;;;;;;;8.23;87.33;98606.78;5032079;28;20029;-72
2021/11/01 23:59:05;;;;;;;0.05;0.05;;;;;;;8.16;86.61;98595.63;5031396;28;20655;-72
